Time;durP1;ratioP1;P1;durP2;ratioP2;P2;SDS_P1;SDS_P2;PMS_P1;PMS_P2;Temp;Humidity;BMP_temperature;BMP_pressure;BME280_temperature;BME280_humidity;BME280_pressure;Samples;Min_cycle;Max_cycle;Signal;HPM_P1;HPM_P2
2023/09/18 00:02:33;;;;;;;17.10;12.70;;;;;;;17.05;99.36;100495.40;214867;1287;141221;-85
2023/09/18 00:07:33;;;;;;;18.90;11.50;;;;;;;17.03;99.88;100499.02;215335;1290;139199;-86
2023/09/18 00:12:34;;;;;;;19.90;12.60;;;;;;;16.99;99.86;100492.94;214828;1290;140415;-86
2023/09/18 00:17:37;;;;;;;19.80;14.50;;;;;;;16.96;99.87;100489.56;215298;1287;138919;-86
2023/09/18 00:22:37;;;;;;;19.50;13.30;;;;;;;16.95;99.95;100485.20;214810;1288;139964;-86
2023/09/18 00:27:38;;;;;;;25.60;14.20;;;;;;;16.94;99.98;100489.84;215127;1288;138702;-86
2023/09/18 00:32:38;;;;;;;18.80;13.50;;;;;;;16.93;100.00;100486.51;214644;1288;141732;-85
2023/09/18 00:37:39;;;;;;;25.00;15.10;;;;;;;16.90;100.00;100481.94;215259;1287;138828;-85
2023/09/18 00:42:40;;;;;;;20.40;14.90;;;;;;;16.88;100.00;100480.86;215137;1287;141587;-85
2023/09/18 00:47:40;;;;;;;23.40;15.80;;;;;;;16.87;100.00;100480.73;215195;1286;138692;-85
2023/09/18 00:52:42;;;;;;;22.40;14.90;;;;;;;16.84;100.00;100480.28;214677;1287;141118;-86
2023/09/18 00:57:44;;;;;;;20.40;15.10;;;;;;;16.83;100.00;100474.57;215176;1288;140223;-86
2023/09/18 01:02:45;;;;;;;22.30;15.90;;;;;;;16.82;100.00;100476.73;214736;1290;140664;-86
2023/09/18 01:07:46;;;;;;;22.30;16.20;;;;;;;16.81;100.00;100473.10;215113;1287;139524;-86
2023/09/18 01:12:54;;;;;;;23.00;16.20;;;;;;;16.79;100.00;100471.37;214722;1288;139731;-85
2023/09/18 01:17:54;;;;;;;29.50;18.00;;;;;;;16.78;100.00;100465.45;215459;1288;140466;-85
2023/09/18 01:22:54;;;;;;;22.80;16.50;;;;;;;16.76;100.00;100461.73;214802;1287;141913;-86
2023/09/18 01:27:55;;;;;;;24.00;16.40;;;;;;;16.75;100.00;100462.77;215149;1288;140046;-86
2023/09/18 01:32:57;;;;;;;22.90;15.70;;;;;;;16.74;100.00;100452.63;214830;1287;141595;-86
2023/09/18 01:37:59;;;;;;;24.50;16.50;;;;;;;16.72;100.00;100447.41;215496;1286;138948;-86
2023/09/18 01:43:00;;;;;;;24.70;17.60;;;;;;;16.70;100.00;100442.60;215009;1287;142076;-86
2023/09/18 01:48:03;;;;;;;27.50;17.80;;;;;;;16.68;100.00;100440.24;215520;1287;108068;-85
2023/09/18 01:53:03;;;;;;;25.70;18.30;;;;;;;16.68;100.00;100445.15;214888;1288;141453;-85
2023/09/18 01:58:03;;;;;;;23.70;16.70;;;;;;;16.69;100.00;100442.84;215304;1290;140012;-85
2023/09/18 02:03:04;;;;;;;26.00;18.80;;;;;;;16.68;100.00;100442.86;214872;1286;141324;-86
2023/09/18 02:08:05;;;;;;;25.80;17.80;;;;;;;16.67;100.00;100441.12;215403;1288;140164;-86
2023/09/18 02:13:05;;;;;;;20.90;14.60;;;;;;;16.66;100.00;100443.61;214921;1290;141099;-85
2023/09/18 02:18:05;;;;;;;20.70;15.30;;;;;;;16.64;100.00;100441.23;215621;1286;95223;-85
2023/09/18 02:23:06;;;;;;;20.20;14.40;;;;;;;16.62;100.00;100439.05;214954;1288;141930;-85
2023/09/18 02:28:07;;;;;;;22.40;16.10;;;;;;;16.58;100.00;100431.32;215277;1286;139533;-85
2023/09/18 02:33:07;;;;;;;20.00;14.80;;;;;;;16.54;100.00;100433.84;214875;1288;140661;-85
2023/09/18 02:38:08;;;;;;;26.20;17.40;;;;;;;16.50;100.00;100425.38;215436;1289;138949;-86
2023/09/18 02:43:08;;;;;;;26.20;16.70;;;;;;;16.47;100.00;100422.98;214905;1290;151918;-86
2023/09/18 02:48:08;;;;;;;26.70;18.40;;;;;;;16.43;100.00;100418.98;215788;1290;96586;-85
2023/09/18 02:53:18;;;;;;;25.20;18.20;;;;;;;16.39;100.00;100414.34;214928;1288;140340;-86
2023/09/18 02:58:19;;;;;;;22.90;16.70;;;;;;;16.35;100.00;100408.35;215321;1286;139028;-86
2023/09/18 03:03:19;;;;;;;26.40;17.90;;;;;;;16.30;100.00;100398.95;214738;1288;142408;-86
2023/09/18 03:08:20;;;;;;;22.30;16.50;;;;;;;16.27;100.00;100392.17;215527;1290;139590;-85
2023/09/18 03:13:21;;;;;;;20.30;15.80;;;;;;;16.24;100.00;100383.95;215123;1287;141423;-86
2023/09/18 03:18:22;;;;;;;23.60;17.50;;;;;;;16.21;100.00;100374.63;215574;1290;95120;-86
2023/09/18 03:23:22;;;;;;;25.60;17.80;;;;;;;16.19;100.00;100378.70;215109;1288;141477;-85
2023/09/18 03:28:23;;;;;;;26.00;17.90;;;;;;;16.16;100.00;100378.41;217866;1285;137865;-85
2023/09/18 03:33:23;;;;;;;26.70;18.80;;;;;;;16.12;100.00;100376.24;214899;1285;141252;-85
2023/09/18 03:38:24;;;;;;;25.00;19.20;;;;;;;16.08;100.00;100370.11;215375;1290;140044;-85
2023/09/18 03:43:25;;;;;;;24.70;18.60;;;;;;;16.05;100.00;100364.83;214787;1289;141459;-86
2023/09/18 03:48:25;;;;;;;27.30;19.60;;;;;;;16.03;100.00;100361.14;215542;1289;96633;-85
2023/09/18 03:53:26;;;;;;;25.80;18.50;;;;;;;16.00;100.00;100359.90;214799;1288;141199;-85
2023/09/18 03:58:26;;;;;;;25.50;18.10;;;;;;;15.97;100.00;100355.48;215502;1290;138824;-85
2023/09/18 04:03:27;;;;;;;28.00;19.00;;;;;;;15.96;100.00;100349.80;214854;1285;141463;-86
2023/09/18 04:08:27;;;;;;;30.10;20.40;;;;;;;15.93;100.00;100347.45;215392;1290;140828;-86
2023/09/18 04:13:27;;;;;;;26.10;20.40;;;;;;;15.91;100.00;100337.48;214832;1291;140918;-86
2023/09/18 04:18:28;;;;;;;29.40;20.60;;;;;;;15.87;100.00;100336.27;215707;1286;97761;-86
2023/09/18 04:23:28;;;;;;;27.00;20.40;;;;;;;15.84;100.00;100341.92;214882;1288;142055;-87
2023/09/18 04:28:29;;;;;;;24.60;20.10;;;;;;;15.82;100.00;100338.39;215571;1286;138859;-86
2023/09/18 04:33:29;;;;;;;27.40;20.10;;;;;;;15.80;100.00;100329.45;214857;1290;141665;-86
2023/09/18 04:38:30;;;;;;;28.60;21.50;;;;;;;15.78;100.00;100323.38;215241;1287;139527;-85
2023/09/18 04:43:30;;;;;;;30.40;21.40;;;;;;;15.76;100.00;100321.32;214762;1291;141182;-86
2023/09/18 04:48:31;;;;;;;33.30;22.90;;;;;;;15.76;100.00;100315.23;215498;1291;96461;-86
2023/09/18 04:53:32;;;;;;;30.90;21.60;;;;;;;15.76;100.00;100318.88;214819;1288;141102;-86
2023/09/18 04:58:32;;;;;;;29.70;21.90;;;;;;;15.77;100.00;100322.34;215530;1286;138946;-86
2023/09/18 05:03:34;;;;;;;32.30;22.20;;;;;;;15.80;100.00;100322.48;215366;1288;141750;-86
2023/09/18 05:08:35;;;;;;;31.80;22.70;;;;;;;15.84;100.00;100315.68;216245;1286;140178;-87
2023/09/18 05:13:35;;;;;;;32.70;22.50;;;;;;;15.89;100.00;100319.27;216436;1286;142495;-86
2023/09/18 05:18:37;;;;;;;30.30;23.60;;;;;;;15.93;100.00;100312.02;216770;1289;95408;-86
2023/09/18 05:23:38;;;;;;;35.00;23.70;;;;;;;15.99;100.00;100298.85;215664;1286;141619;-86
2023/09/18 05:28:38;;;;;;;36.10;24.00;;;;;;;16.05;100.00;100307.57;216674;1285;139699;-86
2023/09/18 05:33:39;;;;;;;39.00;23.80;;;;;;;16.12;100.00;100308.91;215230;1286;141589;-87
2023/09/18 05:38:39;;;;;;;35.50;23.30;;;;;;;16.19;100.00;100319.59;216037;1285;140149;-87
2023/09/18 05:43:39;;;;;;;32.00;23.90;;;;;;;16.28;100.00;100316.46;215603;1287;141219;-85
2023/09/18 05:48:40;;;;;;;33.20;23.20;;;;;;;16.38;100.00;100314.02;216162;1290;96873;-86
2023/09/18 05:53:40;;;;;;;32.20;24.00;;;;;;;16.48;100.00;100315.41;215756;1287;140836;-85
2023/09/18 05:58:41;;;;;;;37.10;23.80;;;;;;;16.58;100.00;100303.91;215580;1286;139414;-86
2023/09/18 06:03:41;;;;;;;34.50;23.50;;;;;;;16.67;100.00;100297.58;215090;1288;142866;-86
2023/09/18 06:08:41;;;;;;;31.30;22.80;;;;;;;16.77;100.00;100293.36;215730;1286;139754;-85
2023/09/18 06:13:42;;;;;;;44.30;25.80;;;;;;;16.88;100.00;100285.15;215256;1286;141459;-85
2023/09/18 06:18:44;;;;;;;34.20;22.70;;;;;;;17.02;100.00;100286.18;216712;1288;96183;-86
2023/09/18 06:23:44;;;;;;;33.20;20.70;;;;;;;17.16;100.00;100282.83;215731;1288;143563;-86
2023/09/18 06:28:44;;;;;;;33.20;20.40;;;;;;;17.28;100.00;100274.20;216357;1286;139090;-86
2023/09/18 06:33:45;;;;;;;30.70;20.10;;;;;;;17.45;100.00;100267.39;215538;1287;140555;-86
2023/09/18 06:38:46;;;;;;;26.40;18.20;;;;;;;17.58;100.00;100260.69;215437;1287;138963;-87
2023/09/18 06:43:47;;;;;;;26.60;19.70;;;;;;;17.80;100.00;100259.35;215310;1286;140313;-85
2023/09/18 06:48:50;;;;;;;31.30;18.50;;;;;;;17.98;100.00;100252.77;216472;1288;96566;-84
2023/09/18 06:53:51;;;;;;;25.50;16.30;;;;;;;18.17;100.00;100244.45;215287;1287;141216;-86
2023/09/18 06:58:51;;;;;;;29.50;17.60;;;;;;;18.39;100.00;100238.87;215228;1290;139100;-86
2023/09/18 07:03:52;;;;;;;25.30;17.00;;;;;;;18.57;100.00;100237.56;214821;1287;142566;-85
2023/09/18 07:08:53;;;;;;;21.70;15.90;;;;;;;18.78;100.00;100238.01;215329;1287;138199;-85
2023/09/18 07:13:53;;;;;;;20.70;14.90;;;;;;;19.01;100.00;100236.84;214907;1286;142268;-86
2023/09/18 07:18:54;;;;;;;21.50;15.20;;;;;;;19.18;100.00;100233.74;215416;1287;97924;-85
2023/09/18 07:23:54;;;;;;;21.90;14.70;;;;;;;19.30;100.00;100228.75;214840;1290;140960;-85
2023/09/18 07:28:54;;;;;;;21.90;14.20;;;;;;;19.48;100.00;100224.55;215445;1286;138991;-86
2023/09/18 07:33:55;;;;;;;21.30;13.00;;;;;;;19.75;100.00;100221.08;214752;1290;141253;-85
2023/09/18 07:38:56;;;;;;;19.30;13.10;;;;;;;19.93;100.00;100208.95;215320;1286;139039;-86
2023/09/18 07:43:58;;;;;;;17.20;12.80;;;;;;;20.06;100.00;100206.17;214785;1286;141172;-86
2023/09/18 07:48:58;;;;;;;16.90;11.80;;;;;;;20.29;100.00;100202.42;215561;1287;110893;-85
2023/09/18 07:53:59;;;;;;;18.30;12.10;;;;;;;20.49;100.00;100201.36;214939;1288;141414;-86
2023/09/18 07:59:01;;;;;;;17.60;11.50;;;;;;;20.74;100.00;100196.36;215487;1288;138918;-86
2023/09/18 08:04:05;;;;;;;16.40;12.10;;;;;;;21.04;100.00;100196.86;215146;1288;140925;-86
2023/09/18 08:09:06;;;;;;;15.60;10.90;;;;;;;21.30;100.00;100195.29;215780;1287;139187;-87
2023/09/18 08:14:06;;;;;;;17.40;11.40;;;;;;;21.58;99.98;100191.75;215786;1286;152622;-87
2023/09/18 08:19:09;;;;;;;18.50;11.40;;;;;;;21.90;98.40;100190.88;215944;1288;140601;-86
2023/09/18 08:24:09;;;;;;;18.60;10.80;;;;;;;22.20;97.03;100186.71;216504;1288;95394;-88
2023/09/18 08:29:10;;;;;;;14.70;9.60;;;;;;;22.50;94.86;100190.08;215162;1287;140316;-86
2023/09/18 08:34:10;;;;;;;16.10;9.50;;;;;;;22.80;93.52;100187.78;216224;1286;139378;-86
2023/09/18 08:39:11;;;;;;;13.70;9.70;;;;;;;23.13;92.85;100179.36;215735;1286;140440;-87
2023/09/18 08:44:12;;;;;;;51.20;12.00;;;;;;;23.54;91.05;100170.95;215768;1286;139231;-87
2023/09/18 08:49:14;;;;;;;29.30;9.70;;;;;;;23.90;90.69;100170.00;214458;1287;141225;-87
2023/09/18 08:54:15;;;;;;;15.60;9.50;;;;;;;24.36;87.29;100169.59;214695;1290;96679;-89
2023/09/18 08:59:16;;;;;;;18.90;9.90;;;;;;;24.78;85.70;100165.92;214211;1288;141100;-86
2023/09/18 09:04:17;;;;;;;15.00;9.40;;;;;;;25.33;84.33;100152.58;214837;1288;139350;-86
2023/09/18 09:09:19;;;;;;;14.40;8.90;;;;;;;25.83;81.67;100140.50;214700;1285;141065;-87
2023/09/18 09:15:00;;;;;;;13.90;9.10;;;;;;;26.31;78.12;100133.02;214750;1289;139012;-86
2023/09/18 09:20:15;;;;;;;18.50;9.20;;;;;;;26.77;76.52;100132.60;214784;1287;140396;-87
2023/09/18 09:25:26;;;;;;;16.40;8.30;;;;;;;27.30;75.73;100122.23;214837;1286;138861;-89
2023/09/18 09:30:28;;;;;;;14.30;8.10;;;;;;;27.68;71.66;100109.04;214564;1288;142976;-86
2023/09/18 09:35:33;;;;;;;12.40;8.20;;;;;;;27.99;70.82;100101.34;215141;1286;138339;-87
2023/09/18 09:40:35;;;;;;;;;;;;;;;28.43;70.04;100105.64;214201;1287;139714;-87
2023/09/18 09:45:35;;;;;;;17.00;8.00;;;;;;;28.69;67.84;100102.48;217057;1288;123427;-88
2023/09/18 09:50:48;;;;;;;14.90;9.20;;;;;;;28.90;67.24;100099.47;214243;1286;141449;-88
2023/09/18 09:56:48;;;;;;;21.10;8.30;;;;;;;29.20;64.23;100094.27;215453;1290;108437;-87
2023/09/18 10:01:51;;;;;;;14.80;8.10;;;;;;;29.33;64.24;100082.95;214025;1287;140559;-87
2023/09/18 10:07:08;;;;;;;15.70;8.70;;;;;;;29.68;63.55;100081.60;214965;1288;96608;-87
2023/09/18 10:12:20;;;;;;;26.20;8.60;;;;;;;29.95;60.48;100074.31;214719;1287;140071;-88
2023/09/18 10:17:21;;;;;;;12.30;7.70;;;;;;;30.04;59.56;100065.33;215296;1286;137846;-88
2023/09/18 10:22:37;;;;;;;12.10;7.20;;;;;;;30.22;59.76;100069.13;214363;1290;139375;-88
2023/09/18 10:27:43;;;;;;;12.50;7.80;;;;;;;30.40;58.96;100067.42;217138;1286;138514;-87
2023/09/18 10:32:46;;;;;;;13.50;7.70;;;;;;;30.64;57.76;100059.64;214596;1287;139757;-89
2023/09/18 10:37:54;;;;;;;18.30;8.00;;;;;;;30.80;57.09;100045.27;216027;1288;138532;-88
2023/09/18 10:42:59;;;;;;;11.10;7.80;;;;;;;30.99;55.81;100040.93;214711;1287;140168;-87
2023/09/18 10:48:02;;;;;;;12.70;7.70;;;;;;;30.94;54.20;100034.96;215531;1287;137236;-87
2023/09/18 10:53:02;;;;;;;11.00;6.60;;;;;;;30.88;54.13;100026.08;214933;1285;139495;-89
2023/09/18 10:58:03;;;;;;;15.40;7.40;;;;;;;31.06;53.35;100020.83;215201;1288;138019;-88
2023/09/18 11:03:19;;;;;;;14.40;7.60;;;;;;;31.14;52.55;100014.93;212108;1285;3606544;-87
2023/09/18 11:08:28;;;;;;;20.90;7.70;;;;;;;31.21;52.14;100014.78;215432;1288;138391;-87
2023/09/18 11:13:30;;;;;;;13.90;6.70;;;;;;;31.32;51.16;100018.59;214921;1287;144056;-88
2023/09/18 11:18:40;;;;;;;11.80;7.10;;;;;;;31.35;50.62;100016.55;216627;1285;96682;-88
2023/09/18 11:23:55;;;;;;;21.50;6.90;;;;;;;31.19;49.24;100014.89;216110;1286;139198;-87
2023/09/18 11:28:58;;;;;;;9.60;6.30;;;;;;;31.08;49.96;100014.77;216124;1286;138217;-87
2023/09/18 11:40:08;;;;;;;16.70;5.90;;;;;;;30.80;49.24;100003.54;214945;1286;140509;-87
2023/09/18 11:45:17;;;;;;;21.30;6.80;;;;;;;30.80;49.52;99998.16;215842;1289;138299;-86
2023/09/18 11:50:20;;;;;;;11.60;6.40;;;;;;;30.78;48.62;99995.80;213991;1286;140371;-86
2023/09/18 11:55:20;;;;;;;12.60;7.30;;;;;;;30.63;48.11;99995.71;215118;1287;99825;-89
2023/09/18 12:00:25;;;;;;;13.00;7.70;;;;;;;30.48;48.87;99985.75;214625;1287;139926;-86
2023/09/18 12:05:26;;;;;;;12.00;7.90;;;;;;;30.48;49.23;99972.53;215062;1289;137746;-86
2023/09/18 12:10:31;;;;;;;18.60;6.60;;;;;;;30.37;48.69;99957.45;214217;1290;139701;-87
2023/09/18 12:16:09;;;;;;;13.30;7.40;;;;;;;30.31;49.05;99949.13;214495;1286;138474;-88
2023/09/18 12:21:10;;;;;;;10.70;6.20;;;;;;;30.35;48.55;99934.23;213753;1290;140331;-86
2023/09/18 12:26:13;;;;;;;13.60;5.90;;;;;;;30.33;48.68;99929.09;214273;1290;137869;-87
2023/09/18 12:31:15;;;;;;;12.30;7.00;;;;;;;30.29;47.71;99922.40;213987;1289;143038;-86
2023/09/18 12:36:19;;;;;;;13.40;6.30;;;;;;;30.18;47.66;99918.42;215222;1287;137863;-84
2023/09/18 12:41:20;;;;;;;12.20;6.40;;;;;;;30.09;47.50;99911.21;213890;1287;139855;-84
2023/09/18 12:46:21;;;;;;;9.70;5.60;;;;;;;30.05;47.69;99906.84;214429;1286;137904;-85
2023/09/18 12:51:31;;;;;;;10.40;5.40;;;;;;;30.06;47.78;99905.44;214022;1287;140464;-85
2023/09/18 12:56:32;;;;;;;12.20;5.90;;;;;;;30.00;47.30;99902.02;214688;1290;137808;-85
2023/09/18 13:01:33;;;;;;;12.60;6.00;;;;;;;29.89;47.24;99893.29;214130;1287;139970;-87
2023/09/18 13:06:33;;;;;;;16.40;6.00;;;;;;;29.79;47.52;99893.89;214626;1290;96592;-87
2023/09/18 13:11:52;;;;;;;12.80;5.60;;;;;;;29.72;47.47;99889.23;213960;1287;138066;-86
2023/09/18 13:16:53;;;;;;;11.20;5.80;;;;;;;29.67;47.30;99889.14;214487;1286;138235;-87
2023/09/18 13:21:54;;;;;;;15.30;7.10;;;;;;;29.59;47.58;99878.54;214011;1290;139125;-84
2023/09/18 13:26:56;;;;;;;15.40;7.30;;;;;;;29.55;48.14;99876.38;214280;1286;137808;-86
2023/09/18 13:31:56;;;;;;;14.40;6.80;;;;;;;29.47;48.50;99873.08;215868;1287;140326;-86
2023/09/18 13:36:57;;;;;;;12.30;7.00;;;;;;;29.43;47.69;99873.91;215042;1287;96648;-85
2023/09/18 13:41:57;;;;;;;17.40;7.80;;;;;;;29.31;47.50;99870.73;214106;1288;139537;-84
2023/09/18 13:46:58;;;;;;;19.60;7.40;;;;;;;29.23;48.24;99865.24;214779;1286;137641;-86
2023/09/18 13:52:00;;;;;;;16.40;7.90;;;;;;;29.22;49.09;99863.25;214040;1288;140720;-86
2023/09/18 13:57:04;;;;;;;13.60;8.60;;;;;;;29.18;49.12;99864.27;214746;1287;137985;-87
2023/09/18 14:02:05;;;;;;;17.90;7.90;;;;;;;29.15;48.94;99859.89;213975;1290;140628;-85
2023/09/18 14:07:06;;;;;;;13.00;8.40;;;;;;;29.16;49.27;99848.45;215004;1286;96605;-85
2023/09/18 14:12:07;;;;;;;16.40;8.30;;;;;;;29.12;49.44;99838.98;214176;1288;140447;-86
2023/09/18 14:17:09;;;;;;;18.10;9.00;;;;;;;28.98;50.02;99829.91;214716;1288;138399;-86
2023/09/18 14:22:10;;;;;;;12.10;8.80;;;;;;;28.86;50.19;99821.92;214123;1287;140324;-85
2023/09/18 14:27:12;;;;;;;18.90;9.00;;;;;;;28.80;50.65;99808.29;215052;1286;138334;-86
2023/09/18 14:32:12;;;;;;;25.90;9.80;;;;;;;28.84;51.17;99798.65;214183;1287;140692;-87
2023/09/18 14:37:13;;;;;;;15.10;9.70;;;;;;;28.85;51.31;99792.68;215170;1287;96518;-86
2023/09/18 14:42:14;;;;;;;13.80;8.90;;;;;;;28.77;51.54;99792.89;214150;1290;139503;-86
2023/09/18 14:47:16;;;;;;;17.70;10.40;;;;;;;28.75;52.17;99789.45;214945;1288;139228;-87
2023/09/18 14:52:18;;;;;;;15.90;9.50;;;;;;;28.69;52.15;99785.08;216463;1285;140035;-87
2023/09/18 14:57:19;;;;;;;15.50;8.70;;;;;;;28.64;52.29;99778.13;214961;1285;137974;-87
2023/09/18 15:02:20;;;;;;;15.00;9.30;;;;;;;28.58;52.32;99772.63;214336;1287;138829;-86
2023/09/18 15:07:20;;;;;;;15.10;9.00;;;;;;;28.45;51.57;99767.23;215550;1288;96591;-87
2023/09/18 15:12:21;;;;;;;18.80;10.10;;;;;;;28.33;51.02;99771.30;214339;1288;139106;-85
2023/09/18 15:17:21;;;;;;;14.40;9.60;;;;;;;28.25;51.31;99765.58;214724;1287;137592;-88
2023/09/18 15:22:22;;;;;;;22.00;9.30;;;;;;;28.16;51.15;99769.39;214031;1285;139547;-86
2023/09/18 15:27:23;;;;;;;14.30;9.00;;;;;;;28.04;51.72;99769.67;215309;1288;137989;-86
2023/09/18 15:32:24;;;;;;;18.30;9.80;;;;;;;27.95;52.31;99759.27;214110;1285;142995;-86
2023/09/18 15:37:27;;;;;;;11.80;8.90;;;;;;;27.81;52.46;99754.09;215300;1288;98115;-86
2023/09/18 15:42:27;;;;;;;13.30;9.30;;;;;;;27.70;52.97;99750.09;214356;1288;139871;-85
2023/09/18 15:47:28;;;;;;;14.30;9.70;;;;;;;27.57;53.53;99750.76;214964;1287;138076;-87
2023/09/18 15:52:28;;;;;;;14.40;10.00;;;;;;;27.46;54.07;99748.57;214370;1290;140848;-86
2023/09/18 15:57:34;;;;;;;17.40;11.20;;;;;;;27.32;54.97;99745.37;215209;1288;138475;-87
2023/09/18 16:02:35;;;;;;;18.10;9.80;;;;;;;27.18;55.70;99741.23;214994;1290;139913;-86
2023/09/18 16:07:40;;;;;;;20.30;10.10;;;;;;;27.02;56.39;99738.92;214880;1290;96654;-87
2023/09/18 16:12:41;;;;;;;19.10;10.50;;;;;;;26.93;56.99;99736.16;214397;1286;140013;-87
2023/09/18 16:17:41;;;;;;;19.10;11.00;;;;;;;26.85;57.45;99733.02;214826;1288;138510;-86
2023/09/18 16:22:46;;;;;;;18.70;11.20;;;;;;;26.76;58.17;99731.29;214181;1287;140780;-88
2023/09/18 16:27:47;;;;;;;19.30;11.80;;;;;;;26.64;58.92;99734.64;214469;1287;138492;-88
2023/09/18 16:32:47;;;;;;;16.60;11.70;;;;;;;26.53;59.31;99727.82;214157;1286;140385;-87
2023/09/18 16:37:48;;;;;;;16.90;11.70;;;;;;;26.42;60.07;99726.29;214601;1290;138848;-88
2023/09/18 16:42:48;;;;;;;17.20;11.50;;;;;;;26.29;60.62;99721.98;215241;1290;143565;-85
2023/09/18 16:47:49;;;;;;;19.10;11.80;;;;;;;26.19;60.79;99726.66;216216;1290;138492;-87
2023/09/18 16:52:49;;;;;;;23.40;12.80;;;;;;;26.12;61.30;99720.81;215704;1287;139610;-89
2023/09/18 16:57:56;;;;;;;17.80;12.50;;;;;;;26.02;61.96;99727.13;215708;1287;138219;-88
2023/09/18 17:02:57;;;;;;;21.50;13.40;;;;;;;25.93;62.31;99724.48;215496;1286;140962;-87
2023/09/18 17:07:58;;;;;;;22.60;13.60;;;;;;;25.82;63.03;99719.52;216056;1288;138377;-88
2023/09/18 17:13:09;;;;;;;18.40;12.30;;;;;;;25.72;63.20;99722.55;215380;1286;138651;-88
2023/09/18 17:18:11;;;;;;;24.50;12.80;;;;;;;25.62;63.54;99714.74;215735;1287;138177;-87
2023/09/18 17:23:11;;;;;;;25.40;13.60;;;;;;;25.56;63.80;99719.52;215658;1288;139907;-85
2023/09/18 17:28:14;;;;;;;19.70;12.70;;;;;;;25.48;64.16;99715.98;215953;1286;137982;-87
2023/09/18 17:33:15;;;;;;;20.40;12.40;;;;;;;25.44;64.69;99719.15;214972;1290;142024;-89
2023/09/18 17:38:15;;;;;;;20.40;12.30;;;;;;;25.36;64.98;99718.25;215096;1287;139168;-87
2023/09/18 17:43:15;;;;;;;21.60;12.10;;;;;;;25.32;65.24;99727.52;215144;1288;140293;-88
2023/09/18 17:48:18;;;;;;;16.90;12.00;;;;;;;25.27;65.74;99721.94;215538;1285;137799;-89
2023/09/18 17:53:22;;;;;;;17.60;11.70;;;;;;;25.22;66.19;99723.33;215079;1285;141200;-87
2023/09/18 17:58:32;;;;;;;18.90;12.30;;;;;;;25.16;66.41;99722.98;217588;1284;136836;-88
2023/09/18 18:03:33;;;;;;;22.80;13.10;;;;;;;25.09;66.86;99718.66;216231;1286;139626;-89
2023/09/18 18:08:33;;;;;;;19.60;11.90;;;;;;;25.04;67.19;99717.98;216926;1288;137899;-88
2023/09/18 18:13:34;;;;;;;17.30;11.90;;;;;;;24.97;67.51;99708.14;214783;1287;139975;-87
2023/09/18 18:18:34;;;;;;;25.30;12.90;;;;;;;24.94;67.83;99709.27;215483;1286;138964;-88
2023/09/18 18:23:35;;;;;;;14.30;10.80;;;;;;;24.91;67.85;99709.39;216733;1290;140334;-87
2023/09/18 18:28:37;;;;;;;19.50;10.60;;;;;;;24.87;68.30;99705.65;216981;1290;138290;-88
2023/09/18 18:33:38;;;;;;;19.80;10.60;;;;;;;24.82;68.44;99703.20;214764;1288;139870;-87
2023/09/18 18:38:38;;;;;;;17.40;10.70;;;;;;;24.77;68.65;99697.44;214936;1288;139374;-87
2023/09/18 18:43:39;;;;;;;21.60;10.80;;;;;;;24.72;68.94;99692.20;215144;1290;138987;-88
2023/09/18 18:48:40;;;;;;;21.30;10.90;;;;;;;24.67;69.34;99697.40;215378;1290;138919;-87
2023/09/18 18:53:40;;;;;;;22.40;10.60;;;;;;;24.63;69.21;99691.09;214464;1288;138722;-88
2023/09/18 18:58:41;;;;;;;19.90;11.20;;;;;;;24.59;69.70;99688.73;216661;1288;137967;-89
2023/09/18 19:03:43;;;;;;;21.40;10.80;;;;;;;24.52;70.05;99686.52;214861;1288;138375;-89
2023/09/18 19:08:44;;;;;;;18.90;10.10;;;;;;;24.48;70.40;99688.65;215009;1290;138969;-87
2023/09/18 19:13:47;;;;;;;18.30;10.80;;;;;;;24.41;71.37;99683.58;214613;1290;139804;-88
2023/09/18 19:18:48;;;;;;;18.30;12.00;;;;;;;24.30;72.43;99673.50;215148;1287;96677;-87
2023/09/18 19:23:48;;;;;;;21.20;11.70;;;;;;;24.18;72.95;99672.83;215248;1290;139500;-85
2023/09/18 19:28:49;;;;;;;23.70;10.60;;;;;;;24.09;73.07;99664.16;215381;1288;138832;-87
2023/09/18 19:33:49;;;;;;;17.10;10.90;;;;;;;23.98;73.28;99660.05;214753;1287;141838;-88
2023/09/18 19:38:53;;;;;;;15.80;10.10;;;;;;;23.86;73.92;99658.24;215112;1288;137983;-88
2023/09/18 19:43:54;;;;;;;17.30;10.60;;;;;;;23.71;74.60;99651.33;214701;1288;140744;-86
2023/09/18 19:48:55;;;;;;;18.80;11.30;;;;;;;23.62;74.65;99655.25;215537;1288;96596;-87
2023/09/18 19:53:55;;;;;;;17.20;10.60;;;;;;;23.53;74.97;99650.89;214640;1288;140587;-88
2023/09/18 19:58:56;;;;;;;18.60;11.30;;;;;;;23.43;74.91;99642.19;215252;1290;138476;-87
2023/09/18 20:03:56;;;;;;;19.20;11.10;;;;;;;23.36;75.13;99637.55;214648;1290;139392;-88
2023/09/18 20:08:57;;;;;;;17.60;9.70;;;;;;;23.29;75.60;99636.96;215003;1290;141099;-88
2023/09/18 20:13:58;;;;;;;15.40;11.00;;;;;;;23.23;75.48;99641.14;214696;1287;139866;-88
2023/09/18 20:19:02;;;;;;;17.00;11.50;;;;;;;23.19;75.82;99633.48;215293;1290;105532;-87
2023/09/18 20:24:03;;;;;;;21.60;13.70;;;;;;;23.13;75.98;99617.73;214605;1288;140939;-87
2023/09/18 20:29:04;;;;;;;25.70;14.00;;;;;;;23.10;76.06;99621.88;214879;1290;139873;-88
2023/09/18 20:34:05;;;;;;;16.70;12.90;;;;;;;23.08;76.22;99621.11;214669;1287;139987;-88
2023/09/18 20:39:05;;;;;;;22.40;14.30;;;;;;;23.05;76.36;99619.68;215236;1286;139363;-88
2023/09/18 20:44:24;;;;;;;18.30;14.40;;;;;;;23.02;76.52;99623.19;215507;1286;141500;-89
2023/09/18 20:49:25;;;;;;;20.90;14.60;;;;;;;23.00;76.39;99618.98;215552;1289;141028;-88
2023/09/18 20:54:25;;;;;;;20.00;13.70;;;;;;;22.98;76.68;99617.95;215213;1286;139185;-88
2023/09/18 20:59:26;;;;;;;20.70;13.80;;;;;;;22.95;76.86;99617.80;214620;1290;141480;-89
2023/09/18 21:04:28;;;;;;;22.30;14.40;;;;;;;22.93;77.19;99620.16;215066;1290;139248;-91
2023/09/18 21:09:42;;;;;;;18.50;14.90;;;;;;;22.90;77.48;99620.45;214444;1288;140034;-88
2023/09/18 21:14:43;;;;;;;19.10;13.80;;;;;;;22.88;77.60;99622.29;214977;1290;138594;-90
2023/09/18 21:19:44;;;;;;;22.60;15.50;;;;;;;22.85;77.73;99624.27;214990;1288;142281;-88
2023/09/18 21:24:47;;;;;;;23.30;14.20;;;;;;;22.82;78.01;99626.76;215100;1292;139160;-88
2023/09/18 21:29:48;;;;;;;26.60;15.50;;;;;;;22.78;78.65;99631.49;214746;1288;141145;-87
2023/09/18 21:34:49;;;;;;;26.10;15.20;;;;;;;22.75;78.90;99635.03;214914;1290;139045;-87
2023/09/18 21:39:50;;;;;;;20.70;15.10;;;;;;;22.71;79.44;99638.71;214679;1290;141104;-87
2023/09/18 21:44:51;;;;;;;18.70;13.80;;;;;;;22.65;80.01;99639.22;215221;1287;138858;-87
2023/09/18 21:49:51;;;;;;;21.60;13.80;;;;;;;22.61;80.36;99645.77;214524;1287;140770;-87
2023/09/18 21:54:52;;;;;;;23.00;15.20;;;;;;;22.57;80.68;99653.44;215339;1290;96701;-88
2023/09/18 21:59:52;;;;;;;21.30;14.60;;;;;;;22.51;81.27;99657.98;214869;1290;141449;-88
2023/09/18 22:04:53;;;;;;;20.70;13.90;;;;;;;22.46;81.65;99675.45;215715;1290;139046;-88
2023/09/18 22:09:56;;;;;;;18.20;13.00;;;;;;;22.42;82.43;99677.95;214665;1290;141764;-88
2023/09/18 22:14:56;;;;;;;20.40;11.00;;;;;;;22.35;83.05;99683.98;215392;1289;139244;-87
2023/09/18 22:19:57;;;;;;;15.40;10.00;;;;;;;22.26;83.64;99689.27;214674;1290;141055;-86
2023/09/18 22:24:58;;;;;;;14.00;8.50;;;;;;;22.17;84.44;99695.33;215210;1290;96102;-88
2023/09/18 22:29:58;;;;;;;13.00;6.50;;;;;;;22.06;84.41;99691.88;214544;1288;141111;-87
2023/09/18 22:34:58;;;;;;;13.50;5.90;;;;;;;21.96;84.48;99688.92;215087;1291;138655;-86
2023/09/18 22:40:02;;;;;;;13.30;6.00;;;;;;;21.87;84.56;99696.54;214545;1290;141966;-88